NCAR-RAP Real-Time Weather Data

Output produced by METARs form (22 January 2018  03:50 UTC)
found at http://weather.rap.ucar.edu/surface/
 
Conditions at: KGIF observed 22 January 2018  02:53 UTC
Temperature: 17.2°C (63°F)
Dewpoint: 15.6°C (60°F) [RH = 90%]
Pressure (altimeter): 30.18 inches Hg (1022.1 mb)
[Sea-level pressure: 1022.0 mb]
Winds: from the E (100 degrees) at 6 MPH (5 knots; 2.6 m/s)
Visibility: 10 or more miles (16+ km)
Ceiling: at least 12,000 feet AGL
Clouds: sky clear below 12,000 feet AGL
Present Weather: automated observation with no human augmentation;
there may or may not be significant weather present at this time
KGIF 220253Z AUTO 10005KT 10SM CLR 17/16 A3018 RMK AO2 SLP220 T01720156 51005

Conditions at: KGIF observed 22 January 2018  01:53 UTC
Temperature: 17.8°C (64°F)
Dewpoint: 15.6°C (60°F) [RH = 87%]
Pressure (altimeter): 30.18 inches Hg (1022.1 mb)
[Sea-level pressure: 1021.8 mb]
Winds: from the E (100 degrees) at 7 MPH (6 knots; 3.1 m/s)
Visibility: 10 or more miles (16+ km)
Ceiling: at least 12,000 feet AGL
Clouds: sky clear below 12,000 feet AGL
Present Weather: automated observation with no human augmentation;
there may or may not be significant weather present at this time
KGIF 220153Z AUTO 10006KT 10SM CLR 18/16 A3018 RMK AO2 SLP218 T01780156

Conditions at: KGIF observed 22 January 2018  00:53 UTC
Temperature: 19.4°C (67°F)
Dewpoint: 15.6°C (60°F) [RH = 79%]
Pressure (altimeter): 30.18 inches Hg (1022.1 mb)
[Sea-level pressure: 1021.8 mb]
Winds: from the E (90 degrees) at 8 MPH (7 knots; 3.6 m/s)
Visibility: 10 or more miles (16+ km)
Ceiling: at least 12,000 feet AGL
Clouds: sky clear below 12,000 feet AGL
Present Weather: automated observation with no human augmentation;
there may or may not be significant weather present at this time
KGIF 220053Z AUTO 09007KT 10SM CLR 19/16 A3018 RMK AO2 SLP218 T01940156

Conditions at: KGIF observed 21 January 2018  23:53 UTC
Temperature: 20.0°C (68°F)
Dewpoint: 14.4°C (58°F) [RH = 70%]
Pressure (altimeter): 30.17 inches Hg (1021.8 mb)
[Sea-level pressure: 1021.5 mb]
Winds: from the E (80 degrees) at 6 MPH (5 knots; 2.6 m/s)
Visibility: 10 or more miles (16+ km)
Ceiling: at least 12,000 feet AGL
Clouds: sky clear below 12,000 feet AGL
Present Weather: automated observation with no human augmentation;
there may or may not be significant weather present at this time
KGIF 212353Z AUTO 08005KT 10SM CLR 20/14 A3017 RMK AO2 SLP215 T02000144 10256 20200 53007

Conditions at: KGIF observed 21 January 2018  22:53 UTC
Temperature: 22.2°C (72°F)
Dewpoint: 13.9°C (57°F) [RH = 59%]
Pressure (altimeter): 30.16 inches Hg (1021.4 mb)
[Sea-level pressure: 1021.1 mb]
Winds: from the ESE (110 degrees) at 7 MPH (6 knots; 3.1 m/s)
Visibility: 10 or more miles (16+ km)
Ceiling: at least 12,000 feet AGL
Clouds: few clouds at 5000 feet AGL
Present Weather: automated observation with no human augmentation;
there may or may not be significant weather present at this time
KGIF 212253Z AUTO 11006KT 10SM FEW050 22/14 A3016 RMK AO2 SLP211 T02220139

Conditions at: KGIF observed 21 January 2018  21:53 UTC
Temperature: 24.4°C (76°F)
Dewpoint: 12.8°C (55°F) [RH = 48%]
Pressure (altimeter): 30.15 inches Hg (1021.1 mb)
[Sea-level pressure: 1020.7 mb]
Winds: from the SE (130 degrees) at 7 MPH (6 knots; 3.1 m/s)
Visibility: 10 or more miles (16+ km)
Ceiling: at least 12,000 feet AGL
Clouds: sky clear below 12,000 feet AGL
Present Weather: automated observation with no human augmentation;
there may or may not be significant weather present at this time
KGIF 212153Z AUTO 13006KT 10SM CLR 24/13 A3015 RMK AO2 SLP207 T02440128

Conditions at: KGIF observed 21 January 2018  20:53 UTC
Temperature: 25.0°C (77°F)
Dewpoint: 12.2°C (54°F) [RH = 45%]
Pressure (altimeter): 30.15 inches Hg (1021.1 mb)
[Sea-level pressure: 1020.6 mb]
Winds: from the SE (130 degrees) at 8 MPH (7 knots; 3.6 m/s)
Visibility: 10 or more miles (16+ km)
Ceiling: at least 12,000 feet AGL
Clouds: few clouds at 5500 feet AGL
Present Weather: automated observation with no human augmentation;
there may or may not be significant weather present at this time
KGIF 212053Z AUTO 13007KT 10SM FEW055 25/12 A3015 RMK AO2 SLP206 T02500122 56020

Conditions at: KGIF observed 21 January 2018  19:53 UTC
Temperature: 25.0°C (77°F)
Dewpoint: 12.2°C (54°F) [RH = 45%]
Pressure (altimeter): 30.15 inches Hg (1021.1 mb)
[Sea-level pressure: 1020.8 mb]
Winds: from the ESE (120 degrees) at 10 MPH (9 knots; 4.7 m/s)
Visibility: 10 or more miles (16+ km)
Ceiling: at least 12,000 feet AGL
Clouds: scattered clouds at 4900 feet AGL
Present Weather: automated observation with no human augmentation;
there may or may not be significant weather present at this time
KGIF 211953Z AUTO 12009KT 10SM SCT049 25/12 A3015 RMK AO2 SLP208 T02500122

Conditions at: KGIF observed 21 January 2018  18:53 UTC
Temperature: 25.0°C (77°F)
Dewpoint: 13.9°C (57°F) [RH = 50%]
Pressure (altimeter): 30.17 inches Hg (1021.8 mb)
[Sea-level pressure: 1021.5 mb]
Winds: from the ESE (110 degrees) at 7 MPH (6 knots; 3.1 m/s)
Visibility: 10 or more miles (16+ km)
Ceiling: 4300 feet AGL
Clouds: broken clouds at 4300 feet AGL
Present Weather: automated observation with no human augmentation;
there may or may not be significant weather present at this time
KGIF 211853Z AUTO 11006KT 10SM BKN043 25/14 A3017 RMK AO2 SLP215 T02500139

Conditions at: KGIF observed 21 January 2018  17:53 UTC
Temperature: 23.3°C (74°F)
Dewpoint: 13.9°C (57°F) [RH = 56%]
Pressure (altimeter): 30.21 inches Hg (1023.1 mb)
[Sea-level pressure: 1022.6 mb]
Winds: from the SE (130 degrees) at 9 MPH (8 knots; 4.2 m/s)
Visibility: 10 or more miles (16+ km)
Ceiling: at least 12,000 feet AGL
Clouds: scattered clouds at 3700 feet AGL
Present Weather: automated observation with no human augmentation;
there may or may not be significant weather present at this time
KGIF 211753Z AUTO 13008KT 10SM SCT037 23/14 A3021 RMK AO2 SLP226 T02330139 10239 20122 58020

Conditions at: KGIF observed 21 January 2018  16:53 UTC
Temperature: 22.2°C (72°F)
Dewpoint: 14.4°C (58°F) [RH = 61%]
Pressure (altimeter): 30.25 inches Hg (1024.5 mb)
[Sea-level pressure: 1024.1 mb]
Winds: from the E (90 degrees) at 8 MPH (7 knots; 3.6 m/s)
Visibility: 10 or more miles (16+ km)
Ceiling: at least 12,000 feet AGL
Clouds: sky clear below 12,000 feet AGL
Present Weather: automated observation with no human augmentation;
there may or may not be significant weather present at this time
KGIF 211653Z AUTO 09007KT 10SM CLR 22/14 A3025 RMK AO2 SLP241 T02220144

Conditions at: KGIF observed 21 January 2018  15:53 UTC
Temperature: 20.6°C (69°F)
Dewpoint: 14.4°C (58°F) [RH = 68%]
Pressure (altimeter): 30.26 inches Hg (1024.8 mb)
[Sea-level pressure: 1024.7 mb]
Winds: from the ESE (110 degrees) at 7 MPH (6 knots; 3.1 m/s)
Visibility: 10 or more miles (16+ km)
Ceiling: at least 12,000 feet AGL
Clouds: sky clear below 12,000 feet AGL
Present Weather: automated observation with no human augmentation;
there may or may not be significant weather present at this time
KGIF 211553Z AUTO 11006KT 10SM CLR 21/14 A3026 RMK AO2 SLP247 T02060144

Conditions at: KGIF observed 21 January 2018  14:53 UTC
Temperature: 18.9°C (66°F)
Dewpoint: 13.3°C (56°F) [RH = 70%]
Pressure (altimeter): 30.27 inches Hg (1025.1 mb)
[Sea-level pressure: 1024.7 mb]
Winds: from the E (80 degrees) at 7 MPH (6 knots; 3.1 m/s)
Visibility: 10 or more miles (16+ km)
Ceiling: at least 12,000 feet AGL
Clouds: sky clear below 12,000 feet AGL
Present Weather: automated observation with no human augmentation;
there may or may not be significant weather present at this time
KGIF 211453Z AUTO 08006KT 10SM CLR 19/13 A3027 RMK AO2 SLP247 T01890133 53009

Conditions at: KGIF observed 21 January 2018  13:53 UTC
Temperature: 15.6°C (60°F)
Dewpoint: 11.7°C (53°F) [RH = 78%]
Pressure (altimeter): 30.25 inches Hg (1024.5 mb)
[Sea-level pressure: 1024.3 mb]
Winds: from the ENE (70 degrees) at 8 MPH (7 knots; 3.6 m/s)
Visibility: 10 or more miles (16+ km)
Ceiling: at least 12,000 feet AGL
Clouds: sky clear below 12,000 feet AGL
Present Weather: automated observation with no human augmentation;
there may or may not be significant weather present at this time
KGIF 211353Z AUTO 07007KT 10SM CLR 16/12 A3025 RMK AO2 SLP243 T01560117

Conditions at: KGIF observed 21 January 2018  12:53 UTC
Temperature: 12.8°C (55°F)
Dewpoint: 11.1°C (52°F) [RH = 89%]
Pressure (altimeter): 30.25 inches Hg (1024.5 mb)
[Sea-level pressure: 1024.0 mb]
Winds: from the NE (40 degrees) at 6 MPH (5 knots; 2.6 m/s)
Visibility: 10 or more miles (16+ km)
Ceiling: at least 12,000 feet AGL
Clouds: sky clear below 12,000 feet AGL
Present Weather: automated observation with no human augmentation;
there may or may not be significant weather present at this time
KGIF 211253Z AUTO 04005KT 10SM CLR 13/11 A3025 RMK AO2 SLP240 T01280111

Conditions at: KGIF observed 21 January 2018  11:53 UTC
Temperature: 12.2°C (54°F)
Dewpoint: 11.1°C (52°F) [RH = 93%]
Pressure (altimeter): 30.24 inches Hg (1024.1 mb)
[Sea-level pressure: 1023.8 mb]
Winds: calm
Visibility: 10 or more miles (16+ km)
Ceiling: at least 12,000 feet AGL
Clouds: sky clear below 12,000 feet AGL
Present Weather: automated observation with no human augmentation;
there may or may not be significant weather present at this time
KGIF 211153Z AUTO 00000KT 10SM CLR 12/11 A3024 RMK AO2 SLP238 T01220111 10144 20122 53006

Conditions at: KGIF observed 21 January 2018  10:53 UTC
Temperature: 13.3°C (56°F)
Dewpoint: 11.7°C (53°F) [RH = 90%]
Pressure (altimeter): 30.23 inches Hg (1023.8 mb)
[Sea-level pressure: 1023.5 mb]
Winds: calm
Visibility: 10 or more miles (16+ km)
Ceiling: at least 12,000 feet AGL
Clouds: sky clear below 12,000 feet AGL
Present Weather: automated observation with no human augmentation;
there may or may not be significant weather present at this time
KGIF 211053Z AUTO 00000KT 10SM CLR 13/12 A3023 RMK AO2 SLP235 T01330117

Conditions at: KGIF observed 21 January 2018  09:53 UTC
Temperature: 13.3°C (56°F)
Dewpoint: 11.1°C (52°F) [RH = 87%]
Pressure (altimeter): 30.22 inches Hg (1023.5 mb)
[Sea-level pressure: 1023.1 mb]
Winds: from the N (360 degrees) at 5 MPH (4 knots; 2.1 m/s)
Visibility: 10 or more miles (16+ km)
Ceiling: at least 12,000 feet AGL
Clouds: few clouds at 4500 feet AGL
Present Weather: automated observation with no human augmentation;
there may or may not be significant weather present at this time
KGIF 210953Z AUTO 36004KT 10SM FEW045 13/11 A3022 RMK AO2 SLP231 T01330111

Conditions at: KGIF observed 21 January 2018  08:53 UTC
Temperature: 13.9°C (57°F)
Dewpoint: 11.1°C (52°F) [RH = 83%]
Pressure (altimeter): 30.22 inches Hg (1023.5 mb)
[Sea-level pressure: 1023.2 mb]
Winds: from the NNE (20 degrees) at 3 MPH (3 knots; 1.6 m/s)
Visibility: 10 or more miles (16+ km)
Ceiling: at least 12,000 feet AGL
Clouds: sky clear below 12,000 feet AGL
Present Weather: automated observation with no human augmentation;
there may or may not be significant weather present at this time
KGIF 210853Z AUTO 02003KT 10SM CLR 14/11 A3022 RMK AO2 SLP232 T01390111 55008

Conditions at: KGIF observed 21 January 2018  07:53 UTC
Temperature: 13.9°C (57°F)
Dewpoint: 11.1°C (52°F) [RH = 83%]
Pressure (altimeter): 30.21 inches Hg (1023.1 mb)
[Sea-level pressure: 1022.8 mb]
Winds: from the NE (40 degrees) at 6 MPH (5 knots; 2.6 m/s)
Visibility: 10 or more miles (16+ km)
Ceiling: at least 12,000 feet AGL
Clouds: sky clear below 12,000 feet AGL
Present Weather: automated observation with no human augmentation;
there may or may not be significant weather present at this time
KGIF 210753Z AUTO 04005KT 10SM CLR 14/11 A3021 RMK AO2 SLP228 T01390111

Conditions at: KGIF observed 21 January 2018  06:53 UTC
Temperature: 13.9°C (57°F)
Dewpoint: 10.6°C (51°F) [RH = 80%]
Pressure (altimeter): 30.22 inches Hg (1023.5 mb)
[Sea-level pressure: 1023.3 mb]
Winds: from the NNE (30 degrees) at 5 MPH (4 knots; 2.1 m/s)
Visibility: 10 or more miles (16+ km)
Ceiling: at least 12,000 feet AGL
Clouds: sky clear below 12,000 feet AGL
Present Weather: automated observation with no human augmentation;
there may or may not be significant weather present at this time
KGIF 210653Z AUTO 03004KT 10SM CLR 14/11 A3022 RMK AO2 SLP233 T01390106

Conditions at: KGIF observed 21 January 2018  05:53 UTC
Temperature: 13.9°C (57°F)
Dewpoint: 11.1°C (52°F) [RH = 83%]
Pressure (altimeter): 30.24 inches Hg (1024.1 mb)
[Sea-level pressure: 1024.0 mb]
Winds: from the ENE (60 degrees) at 6 MPH (5 knots; 2.6 m/s)
Visibility: 10 or more miles (16+ km)
Ceiling: at least 12,000 feet AGL
Clouds: sky clear below 12,000 feet AGL
Present Weather: automated observation with no human augmentation;
there may or may not be significant weather present at this time
KGIF 210553Z AUTO 06005KT 10SM CLR 14/11 A3024 RMK AO2 PRESFR SLP240 T01390111 10167 20139 58010

Conditions at: KGIF observed 21 January 2018  04:53 UTC
Temperature: 15.0°C (59°F)
Dewpoint: 11.1°C (52°F) [RH = 77%]
Pressure (altimeter): 30.25 inches Hg (1024.5 mb)
[Sea-level pressure: 1024.3 mb]
Winds: from the N (10 degrees) at 5 MPH (4 knots; 2.1 m/s)
Visibility: 10 or more miles (16+ km)
Ceiling: at least 12,000 feet AGL
Clouds: sky clear below 12,000 feet AGL
Present Weather: automated observation with no human augmentation;
there may or may not be significant weather present at this time
KGIF 210453Z AUTO 01004KT 10SM CLR 15/11 A3025 RMK AO2 SLP243 T01500111 402060078

Conditions at: KGIF observed 21 January 2018  03:53 UTC
Temperature: 15.6°C (60°F)
Dewpoint: 12.2°C (54°F) [RH = 80%]
Pressure (altimeter): 30.27 inches Hg (1025.1 mb)
[Sea-level pressure: 1024.8 mb]
Winds: from the ENE (70 degrees) at 3 MPH (3 knots; 1.6 m/s)
Visibility: 10 or more miles (16+ km)
Ceiling: at least 12,000 feet AGL
Clouds: few clouds at 10000 feet AGL
Present Weather: automated observation with no human augmentation;
there may or may not be significant weather present at this time
KGIF 210353Z AUTO 07003KT 10SM FEW100 16/12 A3027 RMK AO2 SLP248 T01560122